Date,TemperatureHighF,TemperatureAvgF,TemperatureLowF,DewpointHighF,DewpointAvgF,DewpointLowF,HumidityHigh,HumidityAvg,HumidityLow,PressureMaxIn,PressureMinIn,WindSpeedMaxMPH,WindSpeedAvgMPH,GustSpeedMaxMPH,PrecipitationSumIn
2013-1-1,57.0,44.3,35.0,30.0,25.9,22.0,76,50,31,0.00,40.00,6,2,14,0.00
2013-1-2,65.0,45.6,33.0,26.0,20.6,15.0,65,41,15,0.00,40.00,9,2,14,0.00
2013-1-3,69.0,48.5,37.0,25.0,16.2,11.0,47,30,11,0.00,40.00,5,1,12,0.00
2013-1-4,66.0,48.7,36.0,18.0,11.1,7.0,39,24,10,0.00,40.00,6,2,14,0.00
2013-1-5,68.0,47.2,38.0,21.0,13.8,9.0,37,27,11,0.00,40.00,5,1,9,0.00
2013-1-6,56.0,44.9,39.0,41.0,31.6,15.0,92,62,32,0.00,40.00,7,1,12,0.00
2013-1-7,65.0,46.2,34.0,39.0,29.4,19.0,97,60,20,0.00,40.00,9,3,18,0.00
2013-1-8,76.0,55.4,43.0,30.0,20.8,15.0,43,28,11,0.00,40.00,10,2,16,0.00
2013-1-9,75.0,57.0,46.0,37.0,30.9,27.0,64,39,19,0.00,40.00,8,2,12,0.00
2013-1-10,54.0,43.2,31.0,46.0,37.8,29.0,98,82,52,0.00,40.00,8,2,19,0.05
2013-1-11,51.0,38.3,29.0,29.0,21.7,13.0,93,56,25,0.00,40.00,6,2,14,0.02
2013-1-12,53.0,38.8,30.0,25.0,17.4,9.0,78,46,17,0.00,40.00,10,3,16,0.00
2013-1-13,53.0,38.9,32.0,19.0,12.2,8.0,51,35,17,0.00,40.00,9,4,16,0.00
2013-1-14,52.0,37.5,26.0,11.0,4.0,-4.0,51,26,11,0.00,40.00,6,2,14,0.00
2013-1-15,61.0,42.1,29.0,21.0,10.9,3.0,53,31,12,0.00,40.00,7,1,12,0.00
2013-1-16,71.0,50.5,36.0,26.0,21.9,19.0,56,36,14,0.00,40.00,6,2,12,0.00
2013-1-17,79.0,58.1,42.0,26.0,16.2,11.0,38,22,9,0.00,40.00,5,2,10,0.00
2013-1-18,79.0,59.2,42.0,25.0,18.8,15.0,37,23,9,0.00,40.00,6,2,10,0.00
2013-1-19,79.0,56.1,43.0,22.0,15.3,9.0,33,22,8,0.00,40.00,7,2,16,0.00
2013-1-20,79.0,58.9,46.0,16.0,9.4,5.0,22,15,7,0.00,40.00,9,2,13,0.00
2013-1-21,78.0,59.8,42.0,16.0,6.5,2.0,21,13,5,0.00,40.00,7,2,15,0.00
2013-1-22,82.0,61.0,47.0,20.0,9.5,1.0,22,14,5,0.00,40.00,8,2,15,0.00
2013-1-23,80.0,65.3,57.0,35.0,29.9,18.0,44,28,16,0.00,40.00,11,2,17,0.00
2013-1-24,67.0,55.3,47.0,57.0,47.6,33.0,95,78,41,0.00,40.00,4,1,11,0.10
2013-1-25,60.0,56.1,53.0,58.0,54.2,51.0,98,94,84,0.00,40.00,3,0,16,0.58
2013-1-26,62.0,55.8,53.0,56.0,54.0,52.0,100,94,76,0.00,40.00,64,8,168,0.36
2013-1-27,58.0,50.6,42.0,53.0,45.6,36.0,99,84,62,0.00,40.00,6,1,137,0.09
2013-1-28,55.0,42.5,34.0,39.0,32.0,25.0,99,70,35,0.00,40.00,0,0,11,0.19
2013-1-29,61.0,44.0,33.0,40.0,32.7,26.0,94,67,36,0.00,40.00,0,0,3,0.01
2013-1-30,72.0,52.5,38.0,39.0,34.8,31.0,96,57,25,0.00,40.00,0,0,7,0.00
2013-1-31,78.0,61.4,41.0,40.0,33.4,30.0,79,39,19,0.00,40.00,0,0,0,0.00
2013-2-1,78.0,61.1,50.0,37.0,29.3,24.0,45,31,17,0.00,40.00,0,0,0,0.00
2013-2-2,77.0,62.6,53.0,42.0,33.9,27.0,48,35,19,0.00,40.00,0,0,0,0.00
2013-2-3,70.0,59.6,51.0,48.0,43.0,36.0,80,56,36,0.00,40.00,9,1,16,0.00
2013-2-4,77.0,59.9,49.0,43.0,38.2,35.0,66,47,22,0.00,40.00,8,2,13,0.00
2013-2-5,74.0,56.4,46.0,48.0,38.3,28.0,98,55,28,0.00,40.00,8,2,16,0.00
2013-2-6,66.0,50.7,42.0,46.0,41.6,35.0,99,74,41,0.00,40.00,4,1,9,0.00
2013-2-7,70.0,50.3,37.0,46.0,38.1,29.0,90,67,34,0.00,40.00,7,2,12,0.00
2013-2-8,46.0,39.9,33.0,41.0,37.1,31.0,97,90,79,0.00,40.00,6,2,21,0.40
2013-2-9,50.0,40.3,32.0,39.0,34.4,31.0,100,81,50,0.00,40.00,4,1,9,0.07
2013-2-10,55.0,43.5,36.0,38.0,33.7,28.0,96,70,40,0.00,40.00,7,1,13,0.00
2013-2-11,57.0,44.9,35.0,36.0,24.2,11.0,90,50,20,0.00,40.00,9,2,16,0.00
2013-2-12,64.0,47.8,38.0,25.0,18.7,14.0,43,33,14,0.00,40.00,9,4,16,0.00
2013-2-13,70.0,52.0,37.0,30.0,22.4,15.0,54,35,12,0.00,40.00,6,2,14,0.00
2013-2-14,78.0,57.3,43.0,34.0,26.4,20.0,53,34,14,0.00,40.00,5,1,11,0.00
2013-2-15,78.0,59.4,45.0,27.0,20.9,15.0,42,25,10,0.00,40.00,6,2,12,0.00
2013-2-16,81.0,61.7,44.0,29.0,13.7,4.0,34,18,5,0.00,40.00,7,3,18,0.00
2013-2-17,73.0,55.3,39.0,40.0,24.1,12.0,79,34,14,0.00,40.00,7,3,15,0.00
2013-2-18,67.0,48.5,33.0,43.0,36.4,26.0,99,69,28,0.00,40.00,5,1,12,0.00
2013-2-19,49.0,43.6,38.0,42.0,39.0,33.0,96,84,59,0.00,40.00,5,2,14,0.24
2013-2-20,52.0,40.2,32.0,37.0,32.5,30.0,99,76,46,0.00,40.00,5,2,11,0.52
2013-2-21,59.0,43.9,33.0,37.0,31.5,27.0,92,64,35,0.00,40.00,7,2,14,0.01
2013-2-22,67.0,49.8,36.0,30.0,25.0,17.0,71,42,16,0.00,40.00,8,3,14,0.00
2013-2-23,67.0,50.5,38.0,33.0,29.4,26.0,76,48,22,0.00,40.00,9,2,15,0.00
2013-2-24,65.0,49.0,34.0,33.0,19.3,4.0,77,38,12,0.00,40.00,9,2,15,0.00
2013-2-25,69.0,52.2,40.0,25.0,15.1,9.0,51,26,10,0.00,40.00,9,3,16,0.00
2013-2-26,75.0,51.7,36.0,24.0,18.6,13.0,56,32,11,0.00,40.00,9,2,17,0.00
2013-2-27,72.0,54.7,40.0,22.0,14.4,10.0,39,23,9,0.00,40.00,7,2,17,0.00
2013-2-28,79.0,59.7,41.0,21.0,15.4,9.0,32,19,9,0.00,40.00,6,3,14,0.00
2013-3-1,85.0,63.9,47.0,27.0,19.9,16.0,33,21,8,0.00,40.00,5,2,13,0.00
2013-3-2,86.0,67.3,53.0,27.0,20.9,16.0,27,18,8,0.00,40.00,9,4,17,0.00
2013-3-3,75.0,60.7,50.0,36.0,25.5,19.0,59,28,13,0.00,40.00,6,2,16,0.00
2013-3-4,72.0,53.4,40.0,44.0,40.7,35.0,92,65,33,0.00,40.00,5,1,11,0.00
2013-3-5,76.0,55.0,41.0,48.0,42.6,34.0,97,68,33,0.00,40.00,7,3,14,0.00
2013-3-6,64.0,52.6,44.0,48.0,42.1,38.0,98,71,40,0.00,40.00,7,2,13,0.00
2013-3-7,55.0,47.7,41.0,48.0,42.7,35.0,97,83,68,0.00,40.00,7,2,13,0.01
2013-3-8,48.0,42.7,39.0,44.0,39.5,35.0,96,88,68,0.00,40.00,6,2,22,1.14
2013-3-9,58.0,47.4,41.0,46.0,42.0,39.0,97,83,50,0.00,40.00,2,0,7,0.19
2013-3-10,75.0,56.6,37.0,41.0,32.6,27.0,95,48,17,0.00,40.00,9,4,14,0.00
2013-3-11,79.0,61.0,45.0,34.0,27.0,20.0,48,30,12,0.00,40.00,8,2,14,0.00
2013-3-12,87.0,66.6,50.0,40.0,30.6,23.0,43,28,12,0.00,40.00,11,3,17,0.00
2013-3-13,92.0,73.0,57.0,40.0,31.3,24.0,34,23,11,0.00,40.00,8,3,18,0.00
2013-3-14,94.0,73.8,61.0,41.0,33.2,27.0,35,24,11,0.00,40.00,7,3,14,0.00
2013-3-15,89.0,70.3,58.0,46.0,34.5,28.0,39,28,13,0.00,40.00,7,2,13,0.00
2013-3-16,82.0,65.1,50.0,47.0,34.3,24.0,86,37,14,0.00,40.00,7,2,15,0.00
2013-3-17,78.0,59.1,40.0,50.0,43.7,38.0,95,63,25,0.00,40.00,5,2,13,0.00
2013-3-18,74.0,56.3,43.0,50.0,45.8,40.0,100,73,34,0.00,40.00,6,2,11,0.00
2013-3-19,77.0,58.6,41.0,53.0,45.6,40.0,99,68,28,0.00,40.00,5,2,13,0.00
2013-3-20,78.0,61.0,46.0,49.0,43.9,41.0,89,58,29,0.00,40.00,7,2,14,0.00
2013-3-21,77.0,59.3,47.0,49.0,44.6,39.0,95,64,27,0.00,40.00,5,1,14,0.00
2013-3-22,78.0,58.2,44.0,49.0,45.0,37.0,100,69,23,0.00,40.00,8,2,16,0.00
2013-3-23,81.0,58.6,39.0,47.0,36.8,27.0,94,53,14,0.00,40.00,7,2,15,0.00
2013-3-24,83.0,62.8,46.0,38.0,32.1,23.0,58,36,12,0.00,40.00,7,2,14,0.00
2013-3-25,84.0,66.1,51.0,39.0,31.4,23.0,53,31,11,0.00,40.00,8,3,14,0.00
2013-3-26,79.0,63.1,50.0,37.0,31.5,19.0,51,34,11,0.00,40.00,9,3,16,0.00
2013-3-27,77.0,57.3,44.0,41.0,34.7,26.0,61,45,27,0.00,40.00,7,2,14,0.00
2013-3-28,82.0,71.6,57.0,47.0,39.3,32.0,52,34,18,0.00,40.00,8,4,15,0.00
2013-3-29,84.0,66.4,51.0,51.0,39.4,33.0,77,41,18,0.00,40.00,7,2,16,0.00
2013-3-30,83.0,65.0,51.0,52.0,43.7,-99.9,81,53,24,0.00,40.00,7,2,16,0.00
2013-3-31,72.0,58.0,45.0,49.0,42.9,36.0,81,60,35,0.00,40.00,9,3,18,0.00
2013-4-1,68.0,57.6,50.0,49.0,45.4,39.0,93,67,37,0.00,40.00,6,2,14,0.00
2013-4-2,80.0,61.2,47.0,50.0,45.5,40.0,95,62,26,0.00,40.00,6,2,14,0.00
2013-4-3,86.0,67.2,50.0,47.0,36.8,29.0,82,38,13,0.00,40.00,9,2,18,0.00
2013-4-4,83.0,65.9,50.0,47.0,39.4,32.0,78,43,17,0.00,40.00,10,3,20,0.00
2013-4-5,72.0,59.5,43.0,52.0,47.8,42.0,96,68,39,0.00,40.00,7,3,13,0.00
2013-4-6,78.0,61.3,51.0,52.0,49.6,46.0,97,70,33,0.00,40.00,7,2,16,0.00
2013-4-7,76.0,59.7,46.0,53.0,48.3,43.0,98,70,32,0.00,40.00,6,2,12,0.00
2013-4-8,55.0,50.5,43.0,51.0,45.3,38.0,95,83,61,0.00,40.00,8,3,20,0.06
2013-4-9,73.0,54.2,39.0,42.0,30.9,13.0,97,53,10,0.00,40.00,8,3,20,0.01
2013-4-10,83.0,63.9,46.0,30.0,22.8,9.0,47,26,6,0.00,40.00,8,2,21,0.00
2013-4-11,83.0,65.2,51.0,49.0,33.5,21.0,89,37,12,0.00,40.00,9,3,17,0.00
2013-4-12,88.0,63.9,45.0,51.0,46.2,39.0,98,62,18,0.00,40.00,8,2,19,0.00
2013-4-13,82.0,62.8,44.0,53.0,47.8,43.0,99,65,29,0.00,40.00,7,3,14,0.00
2013-4-14,63.0,53.3,49.0,51.0,47.4,45.0,96,82,55,0.00,40.00,4,1,10,0.00
2013-4-15,63.0,53.8,48.0,50.0,46.8,43.0,97,79,52,0.00,40.00,8,2,16,0.01
2013-4-16,63.0,51.5,42.0,43.0,37.9,31.0,83,62,31,0.00,40.00,10,2,19,0.01
2013-4-17,73.0,55.2,37.0,37.0,21.0,5.0,85,37,7,0.00,40.00,9,3,17,0.01
2013-4-18,79.0,59.9,42.0,20.0,11.1,5.0,29,17,7,0.00,40.00,7,3,16,0.00
2013-4-19,86.0,66.8,48.0,20.0,10.9,4.0,21,13,5,0.00,40.00,8,4,15,0.00
2013-4-20,93.0,71.1,52.0,32.0,22.6,15.0,29,18,7,0.00,40.00,8,3,16,0.00
2013-4-21,93.0,73.0,57.0,36.0,27.2,17.0,33,21,7,0.00,40.00,9,3,21,0.00
2013-4-22,87.0,67.0,51.0,42.0,30.9,24.0,71,29,11,0.00,40.00,8,2,16,0.00
2013-4-23,87.0,65.1,41.0,50.0,41.2,31.0,95,51,14,0.00,40.00,6,3,14,0.00
2013-4-24,73.0,59.0,46.0,52.0,49.2,44.0,97,73,40,0.00,40.00,8,3,16,0.00
2013-4-25,74.0,58.4,49.0,50.0,45.9,43.0,96,67,35,0.00,40.00,6,1,12,0.00
2013-4-26,87.0,65.7,45.0,49.0,43.0,30.0,93,52,13,0.00,40.00,6,2,18,0.00
2013-4-27,95.0,73.4,53.0,46.0,33.6,27.0,67,28,9,0.00,40.00,11,4,18,0.00
2013-4-28,96.0,75.9,52.0,47.0,34.5,21.0,63,27,7,0.00,40.00,9,3,20,0.00
2013-4-29,94.0,75.1,51.0,44.0,37.5,31.0,65,30,11,0.00,40.00,6,3,13,0.00
2013-4-30,82.0,65.5,47.0,52.0,48.9,43.0,99,60,27,0.00,40.00,7,4,15,0.00
2013-5-1,94.0,69.3,54.0,53.0,42.3,14.0,87,48,6,0.00,40.00,6,2,17,0.00
2013-5-2,95.0,75.8,52.0,41.0,5.5,-9.0,60,11,2,0.00,40.00,11,4,19,0.00
2013-5-3,98.0,77.5,59.0,19.0,8.2,-1.0,12,7,3,0.00,40.00,10,4,20,0.00
2013-5-4,87.0,68.8,53.0,52.0,27.8,13.0,88,29,8,0.00,40.00,10,3,20,0.00
2013-5-5,72.0,59.0,50.0,52.0,47.2,42.0,97,68,36,0.00,40.00,10,3,20,0.00
2013-5-6,61.0,54.8,50.0,55.0,50.6,47.0,98,86,72,0.00,40.00,4,1,14,0.15
2013-5-7,68.0,56.1,49.0,52.0,47.3,43.0,96,74,44,0.00,40.00,6,2,16,0.03
2013-5-8,72.0,59.6,50.0,50.0,47.5,43.0,94,67,40,0.00,40.00,6,2,13,0.01
2013-5-9,77.0,61.2,47.0,57.0,49.7,44.0,97,71,31,0.00,40.00,7,2,14,0.04
2013-5-10,90.0,68.4,48.0,56.0,46.5,-99.9,98,57,18,0.00,40.00,8,2,19,0.04
2013-5-11,98.0,77.8,60.0,50.0,38.0,-99.9,65,31,9,0.00,40.00,9,3,20,0.00
2013-5-12,103.0,85.6,71.0,37.0,30.9,21.0,26,16,6,0.00,40.00,9,4,24,0.00
2013-5-13,106.0,87.1,74.0,37.0,33.2,25.0,24,16,7,0.00,40.00,13,6,22,0.00
2013-5-14,97.0,79.1,57.0,38.0,29.1,12.0,46,19,6,0.00,40.00,10,3,20,0.00
2013-5-15,87.0,66.3,46.0,52.0,40.7,28.0,82,43,21,0.00,40.00,6,2,19,0.00
2013-5-16,85.0,57.8,47.0,53.0,34.2,-99.9,98,66,25,0.00,40.00,9,3,15,0.00
2013-5-17,78.0,63.4,55.0,54.0,47.4,-99.9,90,68,35,0.00,40.00,10,2,17,0.00
2013-5-18,83.0,67.4,57.0,56.0,51.9,48.0,88,62,31,0.00,40.00,8,2,15,0.00
2013-5-19,90.0,68.1,48.0,54.0,49.9,43.0,97,59,20,0.00,40.00,8,2,17,0.00
2013-5-20,99.0,75.0,51.0,54.0,42.7,29.0,92,42,9,0.00,40.00,9,2,19,0.00
2013-5-21,94.0,76.7,61.0,45.0,36.6,32.0,39,25,13,0.00,40.00,9,3,18,0.00
2013-5-22,83.0,66.2,48.0,52.0,44.6,31.0,95,51,15,0.00,40.00,10,3,18,0.00
2013-5-23,79.0,64.3,52.0,50.0,46.1,39.0,85,56,25,0.00,40.00,7,3,15,0.00
2013-5-24,82.0,64.1,49.0,48.0,41.7,32.0,91,48,22,0.00,40.00,6,3,16,0.00
2013-5-25,82.0,62.0,42.0,47.0,41.2,24.0,92,55,12,0.00,40.00,6,2,15,0.00
2013-5-26,81.0,61.5,44.0,51.0,44.2,40.0,93,58,26,0.00,40.00,8,2,15,0.00
2013-5-27,86.0,65.4,47.0,53.0,47.7,44.0,89,57,26,0.00,40.00,8,2,14,0.00
2013-5-28,80.0,64.1,51.0,56.0,52.6,49.0,98,70,35,0.00,40.00,7,2,16,0.00
2013-5-29,93.0,69.9,52.0,56.0,48.6,38.0,92,55,18,0.00,40.00,10,3,18,0.00
2013-5-30,93.0,72.7,53.0,55.0,50.7,44.0,93,53,19,0.00,40.00,7,3,15,0.00
2013-5-31,98.0,74.1,51.0,54.0,50.8,48.0,91,51,19,0.00,40.00,8,2,18,0.00
2013-6-1,105.0,85.2,60.0,58.0,44.2,23.0,76,33,6,0.00,40.00,9,2,18,0.00
2013-6-2,95.0,76.9,58.0,58.0,47.8,29.0,86,46,11,0.00,40.00,8,3,16,0.00
2013-6-3,91.0,69.6,52.0,59.0,51.3,41.0,95,61,18,0.00,40.00,6,3,13,0.00
2013-6-4,89.0,68.3,49.0,54.0,48.4,23.0,93,58,9,0.00,40.00,7,3,15,0.00
2013-6-5,92.0,70.4,48.0,55.0,49.4,38.0,96,56,16,0.00,40.00,7,2,13,0.00
2013-6-6,95.0,72.9,53.0,55.0,49.4,42.0,87,51,16,0.00,40.00,8,2,17,0.00
2013-6-7,96.0,72.4,51.0,57.0,52.0,44.0,94,56,19,0.00,40.00,7,2,15,0.00
2013-6-8,97.0,74.1,53.0,57.0,53.6,51.0,94,56,22,0.00,40.00,8,3,15,0.00
2013-6-9,94.0,72.3,52.0,56.0,47.9,31.0,96,51,13,0.00,40.00,8,2,17,0.00
2013-6-10,87.0,69.7,48.0,56.0,45.6,29.0,94,49,13,0.00,40.00,9,3,17,0.00
2013-6-11,102.0,75.3,53.0,48.0,37.1,28.0,61,31,8,0.00,40.00,6,2,14,0.00
2013-6-12,91.0,74.1,57.0,56.0,50.0,43.0,77,47,22,0.00,40.00,9,3,16,0.00
2013-6-13,95.0,72.8,50.0,54.0,49.5,44.0,93,52,18,0.00,40.00,8,3,16,0.00
2013-6-14,93.0,72.4,52.0,53.0,43.5,26.0,78,43,9,0.00,40.00,7,3,15,0.00
2013-6-15,90.0,70.5,47.0,53.0,43.3,32.0,91,46,13,0.00,40.00,7,3,15,0.00
2013-6-16,95.0,73.9,49.0,50.0,39.3,28.0,74,35,11,0.00,40.00,8,3,16,0.00
2013-6-17,97.0,76.8,56.0,51.0,42.3,31.0,69,34,10,0.00,40.00,9,3,15,0.00
2013-6-18,94.0,76.4,57.0,46.0,40.9,33.0,59,32,13,0.00,40.00,9,3,17,0.00
2013-6-19,92.0,74.5,54.0,50.0,44.0,35.0,79,38,14,0.00,40.00,8,3,16,0.00
2013-6-20,94.0,69.3,54.0,48.0,41.9,31.0,72,43,11,0.00,40.00,7,2,17,0.00
2013-6-21,94.0,89.0,84.0,44.0,37.8,33.0,25,17,12,0.00,40.00,8,7,17,0.00
2013-6-22,94.0,80.2,55.0,47.0,43.0,39.0,72,29,16,0.00,40.00,7,4,13,0.00
2013-6-23,88.0,70.1,52.0,53.0,47.1,40.0,80,48,19,0.00,40.00,8,3,16,0.00
2013-6-24,82.0,65.6,53.0,56.0,53.5,48.0,93,69,31,0.00,40.00,7,2,14,0.00
2013-6-25,91.0,72.2,54.0,59.0,54.8,52.0,93,60,28,0.00,40.00,7,2,14,0.00
2013-6-26,101.0,81.2,61.0,59.0,55.4,52.0,86,48,21,0.00,40.00,9,3,18,0.00
2013-6-27,104.0,84.5,66.0,57.0,51.7,43.0,66,37,13,0.00,40.00,8,2,16,0.00
2013-6-28,108.0,87.9,70.0,54.0,46.9,40.0,40,27,12,0.00,40.00,7,2,15,0.00
2013-6-29,111.0,90.4,71.0,52.0,42.0,31.0,39,21,7,0.00,40.00,7,3,16,0.00
2013-6-30,113.0,91.0,77.0,54.0,44.7,36.0,43,22,10,0.00,40.00,8,3,15,0.00
2013-7-1,104.0,87.7,73.0,54.0,48.0,39.0,49,29,12,0.00,40.00,9,3,17,0.00
2013-7-2,105.0,86.0,68.0,59.0,50.7,42.0,61,34,13,0.00,40.00,10,3,18,0.00
2013-7-3,104.0,85.5,69.0,59.0,47.3,42.0,61,29,14,0.00,40.00,7,2,16,0.00
2013-7-4,103.0,83.8,66.0,50.0,44.9,36.0,54,30,11,0.00,40.00,7,3,16,0.00
2013-7-5,99.0,80.3,63.0,54.0,48.1,43.0,63,36,16,0.00,40.00,9,3,15,0.00
2013-7-6,100.0,75.9,61.0,60.0,55.6,51.0,78,54,21,0.00,40.00,8,2,15,0.00
2013-7-7,103.0,82.4,61.0,60.0,48.3,31.0,87,42,10,0.00,40.00,9,3,21,0.00
2013-7-8,109.0,81.6,65.0,47.0,37.6,-99.9,47,25,7,0.00,40.00,10,2,23,0.00
2013-7-9,108.0,89.6,77.0,49.0,39.3,30.0,29,18,9,0.00,40.00,9,3,19,0.00
2013-7-10,93.0,80.1,70.0,57.0,49.2,-99.9,57,37,28,0.00,40.00,8,3,15,0.00
2013-7-11,84.0,75.2,68.0,62.0,58.2,53.0,71,56,42,0.00,40.00,4,1,9,0.00
2013-7-12,97.0,78.4,65.0,64.0,59.3,54.0,88,57,24,0.00,40.00,8,2,20,0.00
2013-7-13,100.0,81.1,61.0,60.0,52.3,37.0,86,45,12,0.00,40.00,9,3,18,0.00
2013-7-14,102.0,83.0,68.0,58.0,51.7,46.0,63,38,16,0.00,40.00,10,3,16,0.00
2013-7-15,101.0,81.5,64.0,51.0,44.1,38.0,54,31,12,0.00,40.00,9,3,19,0.00
2013-7-16,100.0,87.8,66.0,42.0,30.6,22.0,28,14,7,0.00,40.00,8,4,16,0.00
2013-7-17,102.0,81.0,60.0,43.0,29.3,18.0,37,19,5,0.00,40.00,8,3,17,0.00
2013-7-18,99.0,82.8,65.0,46.0,31.2,18.0,39,18,6,0.00,40.00,5,2,11,0.00
2013-7-19,100.0,79.1,64.0,57.0,42.1,34.0,66,30,10,0.00,40.00,7,2,13,0.00
2013-7-20,96.0,76.0,66.0,66.0,57.5,-99.9,72,56,34,0.00,40.00,7,2,12,0.00
2013-7-21,88.0,75.9,68.0,69.0,62.3,52.0,86,64,41,0.00,40.00,7,2,21,0.00
2013-7-22,90.0,76.5,64.0,65.0,61.3,59.0,88,63,38,0.00,40.00,6,2,16,0.00
2013-7-23,96.0,78.8,63.0,62.0,58.8,54.0,85,55,25,0.00,40.00,8,2,16,0.00
2013-7-24,99.0,81.2,64.0,61.0,57.7,51.0,82,50,20,0.00,40.00,9,3,17,0.00
2013-7-25,102.0,82.1,63.0,61.0,56.3,50.0,81,47,20,0.00,40.00,9,3,17,0.00
2013-7-26,96.0,79.2,66.0,69.0,58.8,55.0,76,53,26,0.00,40.00,7,2,13,0.00
2013-7-27,100.0,80.7,66.0,64.0,57.4,51.0,78,50,20,0.00,40.00,8,2,17,0.00
2013-7-28,96.0,76.3,61.0,58.0,48.5,29.0,85,47,11,0.00,40.00,9,2,17,0.00
2013-7-29,96.0,75.0,55.0,50.0,43.2,34.0,66,37,12,0.00,40.00,7,3,13,0.00
2013-7-30,95.0,76.5,58.0,55.0,50.0,43.0,79,45,17,0.00,40.00,7,3,15,0.00
2013-7-31,93.0,74.5,56.0,57.0,52.7,45.0,87,53,19,0.00,40.00,7,3,15,0.00
2013-8-1,92.0,72.6,51.0,57.0,46.5,37.0,96,49,15,0.00,40.00,6,3,13,0.00
2013-8-2,95.0,72.5,52.0,53.0,46.0,35.0,86,46,13,0.00,40.00,8,2,16,0.00
2013-8-3,96.0,74.6,51.0,54.0,45.4,28.0,91,45,10,0.00,40.00,8,3,15,0.00
2013-8-4,99.0,76.8,57.0,51.0,46.0,33.0,77,41,10,0.00,40.00,8,2,16,0.00
2013-8-5,100.0,77.2,60.0,46.0,36.3,24.0,49,27,8,0.00,40.00,8,2,17,0.00
2013-8-6,97.0,75.1,56.0,45.0,36.9,18.0,63,31,6,0.00,40.00,8,2,15,0.00
2013-8-7,95.0,74.0,55.0,47.0,35.8,24.0,53,30,8,0.00,40.00,6,2,16,0.00
2013-8-8,95.0,74.6,57.0,47.0,37.1,23.0,60,32,8,0.00,40.00,7,2,17,0.00
2013-8-9,92.0,74.9,55.0,40.0,33.4,28.0,56,26,11,0.00,40.00,8,3,15,0.00
2013-8-10,92.0,73.5,52.0,46.0,37.7,24.0,51,29,16,0.00,40.00,8,3,17,0.00
2013-8-11,96.0,73.2,55.0,50.0,42.8,31.0,66,40,10,0.00,40.00,8,2,17,0.00
2013-8-12,99.0,76.8,55.0,51.0,44.5,30.0,70,37,9,0.00,40.00,8,3,14,0.00
2013-8-13,103.0,78.7,58.0,52.0,43.9,-99.9,70,36,9,0.00,40.00,8,3,17,0.00
2013-8-14,108.0,83.6,61.0,55.0,45.2,29.0,72,35,7,0.00,40.00,9,3,18,0.00
2013-8-15,105.0,82.1,65.0,54.0,33.3,-99.9,58,24,8,0.00,40.00,7,3,17,0.00
2013-8-16,104.0,84.0,67.0,52.0,42.0,-99.9,46,27,12,0.00,40.00,9,3,15,0.00
2013-8-17,106.0,84.5,68.0,53.0,47.4,-99.9,51,32,13,0.00,40.00,8,3,18,0.00
2013-8-18,105.0,86.7,68.0,57.0,50.5,46.0,58,33,16,0.00,40.00,9,3,18,0.00
2013-8-19,100.0,79.5,70.0,58.0,47.2,-99.9,52,37,22,0.00,40.00,8,2,14,0.00
2013-8-20,104.0,82.8,65.0,55.0,45.3,31.0,62,33,9,0.00,40.00,8,2,16,0.00
2013-8-21,106.0,86.4,65.0,48.0,41.0,32.0,39,24,9,0.00,40.00,9,3,16,0.00
2013-8-22,105.0,87.2,68.0,49.0,43.8,36.0,47,25,11,0.00,40.00,8,3,18,0.00
2013-8-23,104.0,84.0,66.0,51.0,43.0,34.0,52,28,12,0.00,40.00,8,2,18,0.00
2013-8-24,102.0,80.1,66.0,59.0,38.3,-99.9,61,28,8,0.00,40.00,7,2,19,0.00
2013-8-25,94.0,75.6,67.0,62.0,57.7,54.0,67,56,32,0.00,40.00,9,2,19,0.07
2013-8-26,88.0,78.8,71.0,66.0,61.2,57.0,67,56,40,0.00,40.00,6,1,12,0.01
2013-8-27,95.0,76.1,69.0,64.0,61.4,60.0,76,63,31,0.00,40.00,8,1,15,0.01
2013-8-28,102.0,93.2,78.0,58.0,55.0,52.0,46,29,21,0.00,40.00,9,4,17,0.00
2013-8-29,99.0,80.5,71.0,77.0,62.8,55.0,76,57,27,0.00,40.00,8,1,18,0.46
2013-8-30,93.0,80.2,72.0,73.0,68.4,62.0,86,70,36,0.00,40.00,8,2,14,0.03
2013-8-31,96.0,80.5,70.0,72.0,65.6,-99.9,88,65,37,0.00,40.00,8,2,15,0.01
2013-9-1,99.0,81.6,69.0,68.0,64.1,56.0,87,60,25,0.00,40.00,8,2,18,0.00
2013-9-2,99.0,79.2,67.0,65.0,61.3,51.0,85,59,25,0.00,40.00,11,2,20,0.02
2013-9-3,104.0,86.0,74.0,64.0,58.9,54.0,68,44,20,0.00,40.00,10,3,23,0.01
2013-9-4,101.0,84.1,74.0,61.0,57.6,52.0,59,43,20,0.00,40.00,9,3,23,0.01
2013-9-5,102.0,85.7,78.0,64.0,59.0,52.0,58,43,20,0.00,40.00,9,4,22,0.09
2013-9-6,106.0,87.1,75.0,61.0,55.2,47.0,58,37,17,0.00,40.00,9,3,23,0.03
2013-9-7,98.0,80.1,73.0,66.0,56.8,-99.9,72,48,22,0.00,40.00,8,2,21,0.05
2013-9-8,100.0,82.6,69.0,64.0,52.3,39.0,72,41,14,0.00,40.00,8,2,14,0.05
2013-9-9,96.0,81.3,68.0,59.0,49.7,46.0,71,37,19,0.00,40.00,8,3,17,0.04
2013-9-10,93.0,75.9,59.0,56.0,50.9,43.0,80,47,18,0.00,40.00,7,3,16,0.04
2013-9-11,93.0,75.4,57.0,53.0,44.2,27.0,87,41,11,0.00,40.00,6,2,14,0.00
2013-9-12,99.0,78.6,61.0,44.0,36.7,23.0,50,27,8,0.00,40.00,8,2,15,0.00
2013-9-13,103.0,81.8,66.0,45.0,36.4,21.0,36,23,6,0.00,40.00,7,2,16,0.00
2013-9-14,105.0,84.5,69.0,48.0,39.2,-99.9,37,23,9,0.00,40.00,7,3,17,0.00
2013-9-15,104.0,84.9,69.0,43.0,39.9,31.0,37,23,11,0.00,40.00,9,3,17,0.00
2013-9-16,104.0,85.6,70.0,55.0,41.4,37.0,51,24,10,0.00,40.00,9,3,19,0.00
2013-9-17,96.0,79.0,65.0,50.0,41.6,31.0,49,30,11,0.00,40.00,8,2,15,0.00
2013-9-18,68.0,59.6,55.0,53.0,39.6,26.0,74,49,33,0.00,40.00,0,0,5,0.00
2013-9-19,95.0,76.5,57.0,58.0,49.8,37.0,85,46,16,0.00,40.00,7,3,13,0.00
2013-9-20,87.0,68.8,53.0,59.0,54.7,47.0,99,66,30,0.00,40.00,7,2,14,0.00
2013-9-21,85.0,68.7,54.0,57.0,49.5,-99.9,96,57,25,0.00,40.00,8,3,14,0.00
2013-9-22,82.0,66.1,53.0,56.0,48.9,41.0,91,60,24,0.00,40.00,4,1,13,0.00
2013-9-23,97.0,75.4,53.0,49.0,38.1,28.0,78,34,10,0.00,40.00,7,3,14,0.00
2013-9-24,96.0,76.2,62.0,46.0,36.2,28.0,44,26,9,0.00,40.00,10,3,19,0.00
2013-9-25,85.0,66.6,53.0,53.0,40.0,31.0,82,41,20,0.00,40.00,10,2,19,0.00
2013-9-26,74.0,61.2,51.0,51.0,45.5,35.0,79,59,24,0.00,40.00,10,3,18,0.00
2013-9-27,85.0,65.4,47.0,45.0,28.0,17.0,70,31,9,0.00,40.00,8,3,13,0.00
2013-9-28,91.0,72.0,58.0,26.0,17.0,-99.9,21,13,6,0.00,40.00,8,4,15,0.00
2013-9-29,92.0,74.6,60.0,31.0,22.6,15.0,27,16,6,0.00,40.00,9,4,17,0.00
2013-9-30,94.0,74.0,59.0,34.0,25.7,21.0,29,19,8,0.00,40.00,7,2,14,0.00
2013-10-1,85.0,69.5,57.0,47.0,42.4,34.0,56,41,16,0.00,40.00,5,1,11,0.00
2013-10-2,84.0,65.1,49.0,54.0,46.9,36.0,90,56,26,0.00,40.00,6,2,13,0.00
2013-10-3,78.0,64.4,53.0,56.0,50.3,43.0,95,64,33,0.00,40.00,7,2,15,0.00
2013-10-4,88.0,68.4,47.0,54.0,35.5,8.0,96,47,8,0.00,40.00,7,3,18,0.00
2013-10-5,91.0,68.9,52.0,13.0,8.8,6.0,19,11,4,0.00,40.00,8,3,16,0.00
2013-10-6,93.0,73.2,54.0,16.0,10.2,5.0,15,10,4,0.00,40.00,7,3,15,0.00
2013-10-7,90.0,73.5,59.0,24.0,13.6,6.0,22,11,5,0.00,40.00,8,3,15,0.00
2013-10-8,80.0,63.8,53.0,52.0,29.6,14.0,85,33,13,0.00,40.00,8,3,15,0.00
2013-10-9,58.0,52.2,46.0,51.0,47.9,44.0,96,86,67,0.00,40.00,4,1,14,0.66
2013-10-10,67.0,54.7,43.0,47.0,43.6,40.0,96,69,40,0.00,40.00,6,2,15,0.43
2013-10-11,79.0,59.8,44.0,48.0,41.5,37.0,87,56,24,0.00,40.00,7,2,11,0.00
2013-10-12,82.0,64.5,55.0,51.0,39.9,-99.9,81,46,18,0.00,40.00,9,3,17,0.00
2013-10-13,75.0,58.3,43.0,50.0,45.8,41.0,99,68,29,0.00,40.00,7,2,13,0.00
2013-10-14,85.0,64.4,47.0,44.0,33.7,24.0,90,41,11,0.00,40.00,6,2,13,0.00
2013-10-15,86.0,68.3,54.0,32.0,25.3,21.0,39,22,10,0.00,40.00,6,2,14,0.00
2013-10-16,86.0,67.3,52.0,28.0,21.5,16.0,29,19,9,0.00,40.00,10,3,15,0.00
2013-10-17,85.0,67.4,53.0,33.0,23.3,19.0,37,21,9,0.00,40.00,8,3,15,0.00
2013-10-18,89.0,70.4,55.0,33.0,24.2,15.0,37,20,7,0.00,40.00,10,3,16,0.00
2013-10-19,91.0,71.4,60.0,32.0,17.6,-99.9,26,15,4,0.00,40.00,8,4,14,0.00
2013-10-20,89.0,70.1,58.0,38.0,24.0,14.0,36,20,7,0.00,40.00,7,3,14,0.00
2013-10-21,89.0,69.8,55.0,36.0,25.0,17.0,30,20,9,0.00,40.00,4,2,14,0.00
2013-10-22,93.0,72.5,59.0,34.0,23.1,18.0,28,17,7,0.00,40.00,8,2,14,0.00
2013-10-23,79.0,62.7,49.0,52.0,40.8,20.0,95,49,23,0.00,40.00,5,1,11,0.00
2013-10-24,75.0,59.2,46.0,51.0,48.7,45.0,96,72,39,0.00,40.00,4,1,12,0.00
2013-10-25,87.0,66.6,44.0,50.0,40.1,27.0,99,49,13,0.00,40.00,6,2,13,0.00
2013-10-26,94.0,74.6,62.0,32.0,24.3,-99.9,23,16,8,0.00,40.00,9,3,17,0.00
2013-10-27,87.0,70.6,55.0,51.0,30.6,24.0,86,27,10,0.00,40.00,10,4,16,0.00
2013-10-28,60.0,54.1,49.0,52.0,46.9,-99.9,96,80,58,0.00,40.00,7,2,16,0.08
2013-10-29,65.0,52.5,43.0,48.0,43.8,38.0,99,76,40,0.00,40.00,5,1,12,0.07
2013-10-30,72.0,56.9,45.0,48.0,40.0,33.0,93,59,25,0.00,40.00,8,2,14,0.00
2013-10-31,81.0,60.1,47.0,35.0,26.6,18.0,53,32,10,0.00,40.00,5,1,18,0.00
2013-11-1,86.0,66.2,51.0,33.0,25.5,21.0,39,24,9,0.00,40.00,6,2,11,0.00
2013-11-2,84.0,63.7,53.0,36.0,23.8,-99.9,44,25,10,0.00,40.00,7,3,17,0.00
2013-11-3,74.0,57.1,44.0,48.0,39.6,29.0,95,55,31,0.00,40.00,5,2,12,0.00
2013-11-4,63.0,55.0,45.0,47.0,43.8,36.0,80,67,50,0.00,40.00,5,1,10,0.00
2013-11-5,74.0,56.2,42.0,48.0,28.0,10.0,86,43,11,0.00,40.00,7,2,16,0.00
2013-11-6,83.0,63.6,45.0,16.0,7.6,0.0,27,13,4,0.00,40.00,3,1,10,0.00
2013-11-7,87.0,66.9,53.0,21.0,13.2,7.0,22,14,5,0.00,40.00,10,2,16,0.00
2013-11-8,84.0,64.8,55.0,19.0,12.3,4.0,21,14,5,0.00,40.00,7,2,14,0.00
2013-11-9,84.0,64.2,54.0,25.0,13.3,-99.9,24,15,7,0.00,40.00,5,2,12,0.00
2013-11-10,80.0,65.8,53.0,22.0,16.2,13.0,23,15,8,0.00,40.00,9,2,14,0.00
2013-11-11,89.0,66.2,52.0,30.0,21.5,15.0,31,19,10,0.00,40.00,5,2,11,0.00
2013-11-12,83.0,68.4,54.0,35.0,29.3,21.0,35,24,14,0.00,40.00,5,1,11,0.00
2013-11-13,92.0,73.4,61.0,30.0,25.3,22.0,24,18,8,0.00,40.00,9,3,17,0.00
2013-11-14,90.0,69.5,55.0,30.0,24.8,19.0,32,20,8,0.00,40.00,7,2,14,0.00
2013-11-15,65.0,56.5,48.0,51.0,43.4,28.0,88,64,31,0.00,40.00,5,0,11,0.00
2013-11-16,54.0,51.4,50.0,51.0,46.8,-99.9,97,87,76,0.00,40.00,4,0,9,0.02
2013-11-17,68.0,54.7,45.0,47.0,44.1,41.0,91,71,40,0.00,40.00,4,1,11,0.01
2013-11-18,71.0,54.9,44.0,49.0,43.1,38.0,85,67,38,0.00,40.00,5,1,10,0.00
2013-11-19,61.0,55.1,50.0,51.0,48.8,45.0,96,80,56,0.00,40.00,5,1,9,0.00
2013-11-20,61.0,54.9,49.0,53.0,48.7,46.0,95,80,59,0.00,40.00,4,0,7,0.00
2013-11-21,59.0,54.2,46.0,55.0,52.3,45.0,99,94,84,0.00,40.00,3,0,11,0.13
2013-11-22,53.0,45.2,39.0,48.0,43.4,38.0,98,93,83,0.00,40.00,4,0,7,0.29
2013-11-23,61.0,47.5,37.0,47.0,38.5,-99.9,98,76,47,0.00,40.00,5,1,10,0.01
2013-11-24,66.0,50.3,39.0,40.0,36.7,32.0,84,62,34,0.00,40.00,9,2,13,0.00
2013-11-25,72.0,54.1,42.0,40.0,35.0,29.0,75,52,22,0.00,40.00,8,2,13,0.00
2013-11-26,76.0,56.0,47.0,37.0,31.7,26.0,60,43,17,0.00,40.00,5,1,13,0.00
2013-11-27,75.0,58.0,50.0,36.0,32.0,28.0,55,40,19,0.00,40.00,5,2,15,0.00
2013-11-28,69.0,54.5,44.0,45.0,33.2,26.0,76,47,25,0.00,40.00,6,2,15,0.00
2013-11-29,60.0,53.1,46.0,52.0,41.8,32.0,94,67,40,0.00,40.00,7,1,11,0.13
2013-11-30,75.0,58.1,48.0,47.0,39.0,-99.9,77,52,29,0.00,40.00,8,2,13,0.01
2013-12-1,78.0,59.9,49.0,39.0,31.8,22.0,56,37,19,0.00,40.00,9,1,15,0.00
2013-12-2,76.0,60.2,50.0,34.0,22.6,16.0,41,25,12,0.00,40.00,6,1,14,0.00
2013-12-3,68.0,55.6,49.0,50.0,35.8,22.0,88,52,27,0.00,40.00,10,4,15,0.00
2013-12-4,58.0,47.9,36.0,50.0,36.7,30.0,92,68,36,0.00,40.00,7,2,18,0.00
2013-12-5,56.0,43.7,35.0,39.0,32.7,25.0,90,67,30,0.00,40.00,4,1,12,0.02
2013-12-6,54.0,43.8,33.0,37.0,33.1,29.0,90,68,44,0.00,40.00,5,1,11,0.02
2013-12-7,51.0,43.3,38.0,46.0,36.7,-99.9,94,80,57,0.00,40.00,6,2,15,0.04
2013-12-8,55.0,43.1,35.0,38.0,35.3,32.0,91,75,44,0.00,40.00,4,1,11,0.02
2013-12-9,59.0,40.7,30.0,32.0,20.4,8.0,82,52,14,0.00,40.00,5,2,12,0.00
2013-12-10,67.0,46.6,32.0,13.0,8.9,3.0,45,24,9,0.00,40.00,3,1,15,0.00
2013-12-11,73.0,52.8,40.0,19.0,11.9,5.0,35,21,9,0.00,40.00,4,1,8,0.00
2013-12-12,69.0,51.2,42.0,23.0,16.0,11.0,44,26,11,0.00,40.00,4,2,9,0.00
2013-12-13,66.0,49.7,39.0,24.0,20.3,14.0,53,34,13,0.00,40.00,7,2,11,0.00
2013-12-14,75.0,54.2,42.0,18.0,13.1,-99.9,36,22,10,0.00,40.00,10,3,17,0.00
2013-12-15,81.0,57.0,44.0,22.0,14.5,10.0,29,20,8,0.00,40.00,5,2,9,0.00
2013-12-16,82.0,63.7,52.0,31.0,22.2,15.0,28,21,8,0.00,40.00,6,2,11,0.00
2013-12-17,88.0,68.0,57.0,30.0,23.2,18.0,30,19,9,0.00,40.00,4,1,11,0.00
2013-12-18,75.0,61.9,43.0,38.0,24.4,15.0,79,27,15,0.00,40.00,8,2,13,0.00
2013-12-19,50.0,46.2,38.0,47.0,42.9,37.0,97,89,74,0.00,40.00,4,0,9,0.24
2013-12-20,60.0,44.1,35.0,45.0,36.6,32.0,98,78,38,0.00,40.00,8,2,13,0.02
2013-12-21,59.0,45.1,37.0,43.0,36.4,-99.9,93,75,52,0.00,40.00,5,1,12,0.01
2013-12-22,71.0,50.7,36.0,42.0,35.1,32.0,93,60,25,0.00,40.00,9,1,14,0.00
2013-12-23,73.0,55.4,45.0,37.0,31.3,28.0,58,42,19,0.00,40.00,5,2,8,0.00
2013-12-24,78.0,58.7,45.0,31.0,27.0,22.0,48,32,13,0.00,40.00,7,2,12,0.00
2013-12-25,80.0,57.7,46.0,27.0,19.5,9.0,39,25,8,0.00,40.00,6,2,12,0.00
2013-12-26,78.0,56.0,45.0,17.0,12.5,8.0,28,19,7,0.00,40.00,5,4,11,0.00
2013-12-27,81.0,61.3,48.0,17.0,10.0,4.0,22,14,6,0.00,40.00,12,4,18,0.00
2013-12-28,77.0,59.2,47.0,18.0,11.7,-99.9,26,16,8,0.00,40.00,6,2,15,0.00
2013-12-29,74.0,54.7,42.0,18.0,8.7,-2.0,28,17,8,0.00,40.00,10,2,17,0.00
2013-12-30,76.0,56.1,44.0,9.0,0.8,-6.0,16,11,5,0.00,40.00,10,3,16,0.00
2013-12-31,75.0,57.7,48.0,19.0,6.0,-1.0,23,13,7,0.00,40.00,5,1,15,0.00
2014-1-1,80.0,58.6,47.0,21.0,12.7,9.0,27,17,7,0.00,40.00,5,1,13,0.00
2014-1-2,81.0,61.8,49.0,25.0,19.9,16.0,29,21,10,0.00,40.00,5,1,13,0.00